createdAt,value
2019-04-27T00:00:16.520Z,0.00
2019-04-27T00:01:15.507Z,0.00
2019-04-27T00:02:18.203Z,0.00
2019-04-27T00:03:16.484Z,0.00
2019-04-27T00:04:19.018Z,0.00
2019-04-27T00:05:15.467Z,0.00
2019-04-27T00:06:15.453Z,0.00
2019-04-27T00:07:16.967Z,0.00
2019-04-27T00:08:15.435Z,0.00
2019-04-27T00:09:15.420Z,0.00
2019-04-27T00:10:15.413Z,0.00
2019-04-27T00:11:15.399Z,0.00
2019-04-27T00:12:16.468Z,0.00
2019-04-27T00:13:16.377Z,0.00
2019-04-27T00:14:18.138Z,0.00
2019-04-27T00:15:15.357Z,0.00
2019-04-27T00:16:15.347Z,0.00
2019-04-27T00:17:15.341Z,0.00
2019-04-27T00:18:16.926Z,0.00
2019-04-27T00:19:15.314Z,0.00
2019-04-27T00:20:15.308Z,0.00
2019-04-27T00:21:15.318Z,0.00
2019-04-27T00:22:15.281Z,0.00
2019-04-27T00:23:15.272Z,0.00
2019-04-27T00:24:15.261Z,0.00
2019-04-27T00:25:15.248Z,0.00
2019-04-27T00:26:15.238Z,0.00
2019-04-27T00:27:15.227Z,0.00
2019-04-27T00:28:15.217Z,0.00
2019-04-27T00:29:15.208Z,0.00
2019-04-27T00:30:15.195Z,0.00
2019-04-27T00:31:15.186Z,0.00
2019-04-27T00:32:15.175Z,0.00
2019-04-27T00:33:15.162Z,0.00
2019-04-27T00:34:15.187Z,0.00
2019-04-27T00:35:15.142Z,0.00
2019-04-27T00:36:15.130Z,0.00
2019-04-27T00:37:15.120Z,0.00
2019-04-27T00:38:15.121Z,0.00
2019-04-27T00:39:15.098Z,0.00
2019-04-27T00:40:15.089Z,0.00
2019-04-27T00:41:15.077Z,0.00
2019-04-27T00:42:15.067Z,0.00
2019-04-27T00:43:15.058Z,0.00
2019-04-27T00:44:15.045Z,0.00
2019-04-27T00:45:15.040Z,0.00
2019-04-27T00:46:15.026Z,0.00
2019-04-27T00:47:15.014Z,0.00
2019-04-27T00:48:15.002Z,0.00
2019-04-27T00:49:14.991Z,0.00
2019-04-27T00:50:14.984Z,0.00
2019-04-27T00:51:14.970Z,0.00
2019-04-27T00:52:14.960Z,0.00
2019-04-27T00:53:14.955Z,0.00
2019-04-27T00:54:14.939Z,0.00
2019-04-27T00:55:14.929Z,0.00
2019-04-27T00:56:14.919Z,0.00
2019-04-27T00:57:14.908Z,0.00
2019-04-27T00:58:14.899Z,0.00
2019-04-27T00:59:14.884Z,0.00
2019-04-27T01:00:14.874Z,0.00
2019-04-27T01:01:15.048Z,0.00
2019-04-27T01:02:14.855Z,0.00
2019-04-27T01:03:14.843Z,0.00
2019-04-27T01:04:14.831Z,0.00
2019-04-27T01:05:14.821Z,0.00
2019-04-27T01:06:14.987Z,0.00
2019-04-27T01:07:14.804Z,0.00
2019-04-27T01:08:14.788Z,0.00
2019-04-27T01:09:14.778Z,0.00
2019-04-27T01:10:14.766Z,0.00
2019-04-27T01:11:14.758Z,0.00
2019-04-27T01:12:14.747Z,0.00
2019-04-27T01:13:14.734Z,0.00
2019-04-27T01:14:14.722Z,0.00
2019-04-27T01:15:14.713Z,0.00
2019-04-27T01:16:17.451Z,0.00
2019-04-27T01:17:15.705Z,0.00
2019-04-27T01:18:15.508Z,0.00
2019-04-27T01:19:14.671Z,0.00
2019-04-27T01:20:14.660Z,0.00
2019-04-27T01:21:14.649Z,0.00
2019-04-27T01:22:14.642Z,0.00
2019-04-27T01:23:14.629Z,0.00
2019-04-27T01:24:14.618Z,0.00
2019-04-27T01:25:14.608Z,0.00
2019-04-27T01:26:14.596Z,0.00
2019-04-27T01:27:14.587Z,0.00
2019-04-27T01:28:14.577Z,0.00
2019-04-27T01:29:14.562Z,0.00
2019-04-27T01:30:14.554Z,0.00
2019-04-27T01:31:14.541Z,0.00
2019-04-27T01:32:14.531Z,0.00
2019-04-27T01:33:14.530Z,0.00
2019-04-27T01:34:14.509Z,0.00
2019-04-27T01:35:14.501Z,0.00
2019-04-27T01:36:14.487Z,0.00
2019-04-27T01:37:14.478Z,0.00
2019-04-27T01:38:14.468Z,0.00
2019-04-27T01:39:14.457Z,0.00
2019-04-27T01:40:14.445Z,0.00
2019-04-27T01:41:14.434Z,0.00
2019-04-27T01:42:14.424Z,0.00
2019-04-27T01:43:14.415Z,0.00
2019-04-27T01:44:14.403Z,0.00
2019-04-27T01:45:14.392Z,0.00
2019-04-27T01:46:14.381Z,0.00
2019-04-27T01:47:14.371Z,0.00
2019-04-27T01:48:23.036Z,0.00
2019-04-27T01:49:15.348Z,0.00
2019-04-27T01:50:14.337Z,0.00
2019-04-27T01:51:14.327Z,0.00
2019-04-27T01:52:14.321Z,0.00
2019-04-27T01:53:14.306Z,0.00
2019-04-27T01:54:14.297Z,0.00
2019-04-27T01:55:14.285Z,0.00
2019-04-27T01:56:14.273Z,0.00
2019-04-27T01:57:14.265Z,0.00
2019-04-27T01:58:14.252Z,0.00
2019-04-27T01:59:14.241Z,0.00
2019-04-27T02:00:14.230Z,0.00
2019-04-27T02:01:14.221Z,0.00
2019-04-27T02:02:14.210Z,0.00
2019-04-27T02:03:14.202Z,0.00
2019-04-27T02:04:14.190Z,0.00
2019-04-27T02:05:14.181Z,0.00
2019-04-27T02:06:14.168Z,0.00
2019-04-27T02:07:14.157Z,0.00
2019-04-27T02:08:14.145Z,0.00
2019-04-27T02:09:14.133Z,0.00
2019-04-27T02:10:14.125Z,0.00
2019-04-27T02:11:14.143Z,0.00
2019-04-27T02:12:14.102Z,0.00
2019-04-27T02:13:14.091Z,0.00
2019-04-27T02:14:14.083Z,0.00
2019-04-27T02:15:14.069Z,0.00
2019-04-27T02:16:14.059Z,0.00
2019-04-27T02:17:14.049Z,0.00
2019-04-27T02:18:14.035Z,0.00
2019-04-27T02:19:14.028Z,0.00
2019-04-27T02:20:14.015Z,0.00
2019-04-27T02:21:14.007Z,0.00
2019-04-27T02:22:13.992Z,0.00
2019-04-27T02:23:13.981Z,0.00
2019-04-27T02:24:13.971Z,0.00
2019-04-27T02:25:13.962Z,0.00
2019-04-27T02:26:13.951Z,0.00
2019-04-27T02:27:13.941Z,0.00
2019-04-27T02:28:13.931Z,0.00
2019-04-27T02:29:13.919Z,0.00
2019-04-27T02:30:13.908Z,0.00
2019-04-27T02:31:13.899Z,0.00
2019-04-27T02:32:13.896Z,0.00
2019-04-27T02:33:13.877Z,0.00
2019-04-27T02:34:13.871Z,0.00
2019-04-27T02:35:13.856Z,0.00
2019-04-27T02:36:15.164Z,0.00
2019-04-27T02:37:13.836Z,0.00
2019-04-27T02:38:13.822Z,0.00
2019-04-27T02:39:13.814Z,0.00
2019-04-27T02:40:13.800Z,0.00
2019-04-27T02:41:13.789Z,0.00
2019-04-27T02:42:13.779Z,0.00
2019-04-27T02:43:13.769Z,0.00
2019-04-27T02:44:13.758Z,0.00
2019-04-27T02:45:13.747Z,0.00
2019-04-27T02:46:13.742Z,0.00
2019-04-27T02:47:13.727Z,0.00
2019-04-27T02:48:13.715Z,0.00
2019-04-27T02:49:13.708Z,0.00
2019-04-27T02:50:13.697Z,0.00
2019-04-27T02:51:13.683Z,0.00
2019-04-27T02:52:13.672Z,0.00
2019-04-27T02:53:13.660Z,0.00
2019-04-27T02:54:13.651Z,0.00
2019-04-27T02:55:13.697Z,0.00
2019-04-27T02:56:13.633Z,0.00
2019-04-27T02:57:13.620Z,0.00
2019-04-27T02:58:13.606Z,0.00
2019-04-27T02:59:13.594Z,0.00
2019-04-27T03:00:13.586Z,0.00
2019-04-27T03:01:13.573Z,0.00
2019-04-27T03:02:13.567Z,0.00
2019-04-27T03:03:13.558Z,0.00
2019-04-27T03:04:13.546Z,0.00
2019-04-27T03:05:13.532Z,0.00
2019-04-27T03:06:13.521Z,0.00
2019-04-27T03:07:13.510Z,0.00
2019-04-27T03:08:13.497Z,0.00
2019-04-27T03:09:13.487Z,0.00
2019-04-27T03:10:13.478Z,0.00
2019-04-27T03:11:13.467Z,0.00
2019-04-27T03:12:13.456Z,0.00
2019-04-27T03:13:13.453Z,0.00
2019-04-27T03:14:28.319Z,0.00
2019-04-27T03:15:14.425Z,0.00
2019-04-27T03:16:13.534Z,0.00
2019-04-27T03:17:13.407Z,0.00
2019-04-27T03:18:13.389Z,0.00
2019-04-27T03:19:18.077Z,4.00
2019-04-27T03:20:14.370Z,4.00
2019-04-27T03:21:13.449Z,4.00
2019-04-27T03:22:13.350Z,4.00
2019-04-27T03:23:13.343Z,8.00
2019-04-27T03:24:13.327Z,8.00
2019-04-27T03:25:15.334Z,12.00
2019-04-27T03:26:13.321Z,12.00
2019-04-27T03:27:13.294Z,12.00
2019-04-27T03:28:13.286Z,12.00
2019-04-27T03:29:13.273Z,16.00
2019-04-27T03:30:13.264Z,16.00
2019-04-27T03:31:14.091Z,20.00
2019-04-27T03:32:13.403Z,28.00
2019-04-27T03:33:13.231Z,28.00
2019-04-27T03:34:16.422Z,36.00
2019-04-27T03:35:13.679Z,40.00
2019-04-27T03:36:13.447Z,48.00
2019-04-27T03:37:13.192Z,52.00
2019-04-27T03:38:13.176Z,56.00
2019-04-27T03:39:13.163Z,60.00
2019-04-27T03:40:13.153Z,68.00
2019-04-27T03:41:13.150Z,76.00
2019-04-27T03:42:13.132Z,84.00
2019-04-27T03:43:13.122Z,92.00
2019-04-27T03:44:13.110Z,100.00
2019-04-27T03:45:13.098Z,116.00
2019-04-27T03:46:13.103Z,128.00
2019-04-27T03:47:13.080Z,140.00
2019-04-27T03:48:13.072Z,156.00
2019-04-27T03:49:27.762Z,172.00
2019-04-27T03:50:14.053Z,188.00
2019-04-27T03:51:13.036Z,208.00
2019-04-27T03:52:13.023Z,220.00
2019-04-27T03:53:13.016Z,232.00
2019-04-27T03:54:13.002Z,252.00
2019-04-27T03:55:12.995Z,264.00
2019-04-27T03:56:12.984Z,276.00
2019-04-27T03:57:12.970Z,288.00
2019-04-27T03:58:12.962Z,300.00
2019-04-27T03:59:12.966Z,312.00
2019-04-27T04:00:12.957Z,320.00
2019-04-27T04:01:12.933Z,336.00
2019-04-27T04:02:12.916Z,348.00
2019-04-27T04:03:12.905Z,356.00
2019-04-27T04:04:12.898Z,368.00
2019-04-27T04:05:12.886Z,368.00
2019-04-27T04:06:12.876Z,384.00
2019-04-27T04:07:12.865Z,400.00
2019-04-27T04:08:12.856Z,400.00
2019-04-27T04:09:12.852Z,420.00
2019-04-27T04:10:12.832Z,448.00
2019-04-27T04:11:12.822Z,480.00
2019-04-27T04:12:12.819Z,500.00
2019-04-27T04:13:12.797Z,528.00
2019-04-27T04:14:12.791Z,532.00
2019-04-27T04:15:12.788Z,548.00
2019-04-27T04:16:12.769Z,568.00
2019-04-27T04:17:12.943Z,548.00
2019-04-27T04:18:12.749Z,564.00
2019-04-27T04:19:12.737Z,564.00
2019-04-27T04:20:12.722Z,556.00
2019-04-27T04:21:12.713Z,552.00
2019-04-27T04:22:12.703Z,592.00
2019-04-27T04:23:12.692Z,676.00
2019-04-27T04:24:12.682Z,788.00
2019-04-27T04:25:12.670Z,868.00
2019-04-27T04:26:12.659Z,864.00
2019-04-27T04:27:12.652Z,804.00
2019-04-27T04:28:12.636Z,756.00
2019-04-27T04:29:12.627Z,800.00
2019-04-27T04:30:12.755Z,836.00
2019-04-27T04:31:13.795Z,900.00
2019-04-27T04:32:12.593Z,836.00
2019-04-27T04:33:12.583Z,904.00
2019-04-27T04:34:12.574Z,868.00
2019-04-27T04:35:12.564Z,892.00
2019-04-27T04:36:12.556Z,852.00
2019-04-27T04:37:12.540Z,832.00
2019-04-27T04:38:12.544Z,864.00
2019-04-27T04:39:12.877Z,920.00
2019-04-27T04:40:12.507Z,972.00
2019-04-27T04:41:12.500Z,1000.00
2019-04-27T04:42:12.486Z,1008.00
2019-04-27T04:43:12.478Z,872.00
2019-04-27T04:44:12.676Z,752.00
2019-04-27T04:45:12.455Z,812.00
2019-04-27T04:46:13.314Z,960.00
2019-04-27T04:47:12.434Z,996.00
2019-04-27T04:48:12.423Z,952.00
2019-04-27T04:49:12.412Z,872.00
2019-04-27T04:50:15.185Z,932.00
2019-04-27T04:51:12.392Z,992.00
2019-04-27T04:52:12.392Z,1008.00
2019-04-27T04:53:13.021Z,1072.00
2019-04-27T04:54:12.369Z,1120.00
2019-04-27T04:55:12.348Z,1208.00
2019-04-27T04:56:12.337Z,1288.00
2019-04-27T04:57:12.331Z,1404.00
2019-04-27T04:58:12.315Z,1496.00
2019-04-27T04:59:12.303Z,1596.00
2019-04-27T05:00:12.300Z,1700.00
2019-04-27T05:01:12.285Z,1756.00
2019-04-27T05:02:12.272Z,1724.00
2019-04-27T05:03:12.260Z,1652.00
2019-04-27T05:04:12.251Z,1664.00
2019-04-27T05:05:12.239Z,1712.00
2019-04-27T05:06:12.228Z,1644.00
2019-04-27T05:07:12.216Z,1700.00
2019-04-27T05:08:12.207Z,1904.00
2019-04-27T05:09:12.196Z,2124.00
2019-04-27T05:10:12.183Z,2388.00
2019-04-27T05:11:12.182Z,2648.00
2019-04-27T05:12:12.163Z,2908.00
2019-04-27T05:13:12.154Z,3156.00
2019-04-27T05:14:12.142Z,3304.00
2019-04-27T05:15:12.128Z,3360.00
2019-04-27T05:16:12.119Z,3332.00
2019-04-27T05:17:12.110Z,3240.00
2019-04-27T05:18:12.099Z,3064.00
2019-04-27T05:19:12.089Z,2784.00
2019-04-27T05:20:22.310Z,2488.00
2019-04-27T05:21:13.070Z,2480.00
2019-04-27T05:22:12.058Z,2488.00
2019-04-27T05:23:12.044Z,2468.00
2019-04-27T05:24:12.037Z,2560.00
2019-04-27T05:25:12.024Z,2732.00
2019-04-27T05:26:12.010Z,2972.00
2019-04-27T05:27:12.005Z,3164.00
2019-04-27T05:28:11.992Z,3260.00
2019-04-27T05:29:11.979Z,3284.00
2019-04-27T05:30:11.970Z,3836.00
2019-04-27T05:31:11.961Z,3960.00
2019-04-27T05:32:11.948Z,4232.00
2019-04-27T05:33:11.937Z,4136.00
2019-04-27T05:34:11.930Z,3644.00
2019-04-27T05:35:11.914Z,3288.00
2019-04-27T05:36:11.905Z,2864.00
2019-04-27T05:37:11.893Z,2940.00
2019-04-27T05:38:13.483Z,3784.00
2019-04-27T05:39:13.327Z,4096.00
2019-04-27T05:40:11.861Z,4312.00
2019-04-27T05:41:11.850Z,4428.00
2019-04-27T05:42:16.931Z,4816.00
2019-04-27T05:43:12.828Z,4316.00
2019-04-27T05:44:13.041Z,5108.00
2019-04-27T05:45:15.392Z,5932.00
2019-04-27T05:46:12.799Z,6188.00
2019-04-27T05:47:13.124Z,6228.00
2019-04-27T05:48:11.776Z,6144.00
2019-04-27T05:49:11.765Z,6032.00
2019-04-27T05:50:13.340Z,5912.00
2019-04-27T05:51:12.740Z,5764.00
2019-04-27T05:52:14.621Z,5612.00
2019-04-27T05:53:11.723Z,5468.00
2019-04-27T05:54:11.711Z,5360.00
2019-04-27T05:55:11.698Z,5272.00
2019-04-27T05:56:11.689Z,5200.00
2019-04-27T05:57:11.679Z,5164.00
2019-04-27T05:58:11.667Z,5152.00
2019-04-27T05:59:14.602Z,5136.00
2019-04-27T06:00:11.648Z,5124.00
2019-04-27T06:01:11.636Z,5120.00
2019-04-27T06:02:11.631Z,5168.00
2019-04-27T06:03:11.616Z,5328.00
2019-04-27T06:04:11.603Z,5524.00
2019-04-27T06:05:11.591Z,5704.00
2019-04-27T06:06:11.582Z,5968.00
2019-04-27T06:07:11.569Z,6392.00
2019-04-27T06:08:11.561Z,6716.00
2019-04-27T06:09:11.547Z,7020.00
2019-04-27T06:10:11.537Z,7292.00
2019-04-27T06:11:11.528Z,7524.00
2019-04-27T06:12:11.521Z,7712.00
2019-04-27T06:13:11.508Z,7816.00
2019-04-27T06:14:11.500Z,7876.00
2019-04-27T06:15:11.490Z,7912.00
2019-04-27T06:16:11.473Z,7956.00
2019-04-27T06:17:11.465Z,8024.00
2019-04-27T06:18:11.451Z,8116.00
2019-04-27T06:19:11.439Z,8212.00
2019-04-27T06:20:11.427Z,8232.00
2019-04-27T06:21:11.418Z,8300.00
2019-04-27T06:22:11.407Z,8492.00
2019-04-27T06:23:11.395Z,8788.00
2019-04-27T06:24:11.385Z,9080.00
2019-04-27T06:25:12.048Z,9580.00
2019-04-27T06:26:11.792Z,10504.00
2019-04-27T06:27:11.352Z,12152.00
2019-04-27T06:28:11.342Z,14128.00
2019-04-27T06:29:11.330Z,13824.00
2019-04-27T06:30:11.321Z,13328.00
2019-04-27T06:31:11.314Z,16384.00
2019-04-27T06:32:11.303Z,11032.00
2019-04-27T06:33:11.287Z,10428.00
2019-04-27T06:34:11.280Z,9668.00
2019-04-27T06:35:12.451Z,9412.00
2019-04-27T06:36:11.256Z,9140.00
2019-04-27T06:37:11.244Z,8720.00
2019-04-27T06:38:11.600Z,8384.00
2019-04-27T06:39:11.222Z,8060.00
2019-04-27T06:40:11.217Z,8136.00
2019-04-27T06:41:11.229Z,8260.00
2019-04-27T06:42:18.150Z,8484.00
2019-04-27T06:43:12.184Z,8672.00
2019-04-27T06:44:11.556Z,9028.00
2019-04-27T06:45:11.160Z,9604.00
2019-04-27T06:46:11.150Z,10020.00
2019-04-27T06:47:11.135Z,9748.00
2019-04-27T06:48:11.129Z,10312.00
2019-04-27T06:49:11.378Z,11176.00
2019-04-27T06:50:11.104Z,11736.00
2019-04-27T06:51:11.095Z,11832.00
2019-04-27T06:52:11.082Z,11576.00
2019-04-27T06:53:11.075Z,11200.00
2019-04-27T06:54:11.061Z,10672.00
2019-04-27T06:55:11.053Z,10172.00
2019-04-27T06:56:11.046Z,10024.00
2019-04-27T06:57:11.030Z,10112.00
2019-04-27T06:58:11.028Z,10296.00
2019-04-27T06:59:11.008Z,10296.00
2019-04-27T07:00:10.995Z,10388.00
2019-04-27T07:01:11.203Z,10480.00
2019-04-27T07:02:10.977Z,10332.00
2019-04-27T07:03:10.966Z,9988.00
2019-04-27T07:04:11.092Z,9608.00
2019-04-27T07:05:10.944Z,9164.00
2019-04-27T07:06:10.938Z,8708.00
2019-04-27T07:07:10.923Z,8136.00
2019-04-27T07:08:10.911Z,7280.00
2019-04-27T07:09:10.905Z,6408.00
2019-04-27T07:10:10.898Z,7072.00
2019-04-27T07:11:11.534Z,8520.00
2019-04-27T07:12:10.869Z,9672.00
2019-04-27T07:13:10.857Z,11164.00
2019-04-27T07:14:11.592Z,12776.00
2019-04-27T07:15:10.840Z,13176.00
2019-04-27T07:16:10.825Z,13348.00
2019-04-27T07:17:10.819Z,13928.00
2019-04-27T07:18:10.803Z,13588.00
2019-04-27T07:19:10.800Z,13124.00
2019-04-27T07:20:10.787Z,13112.00
2019-04-27T07:21:18.855Z,12764.00
2019-04-27T07:22:11.854Z,12316.00
2019-04-27T07:23:10.749Z,11696.00
2019-04-27T07:24:10.739Z,11796.00
2019-04-27T07:25:10.728Z,11912.00
2019-04-27T07:26:10.717Z,11792.00
2019-04-27T07:27:10.705Z,12608.00
2019-04-27T07:28:10.696Z,14032.00
2019-04-27T07:29:10.686Z,14680.00
2019-04-27T07:30:11.934Z,13856.00
2019-04-27T07:31:10.674Z,14928.00
2019-04-27T07:32:10.673Z,14640.00
2019-04-27T07:33:10.643Z,15072.00
2019-04-27T07:34:10.634Z,13424.00
2019-04-27T07:35:10.619Z,12344.00
2019-04-27T07:36:10.609Z,12296.00
2019-04-27T07:37:11.188Z,12804.00
2019-04-27T07:38:10.588Z,13320.00
2019-04-27T07:39:11.588Z,13264.00
2019-04-27T07:40:10.567Z,12764.00
2019-04-27T07:41:10.556Z,13356.00
2019-04-27T07:42:10.546Z,15632.00
2019-04-27T07:43:10.534Z,17024.00
2019-04-27T07:44:10.525Z,16244.00
2019-04-27T07:45:11.317Z,16864.00
2019-04-27T07:46:10.503Z,18880.00
2019-04-27T07:47:10.494Z,14452.00
2019-04-27T07:48:10.479Z,15416.00
2019-04-27T07:49:10.471Z,21216.00
2019-04-27T07:50:10.460Z,22752.00
2019-04-27T07:51:10.448Z,22112.00
2019-04-27T07:52:10.436Z,21312.00
2019-04-27T07:53:10.427Z,19360.00
2019-04-27T07:54:10.419Z,19008.00
2019-04-27T07:55:10.407Z,15820.00
2019-04-27T07:56:10.816Z,12808.00
2019-04-27T07:57:10.383Z,13344.00
2019-04-27T07:58:10.373Z,12928.00
2019-04-27T07:59:10.363Z,12912.00
2019-04-27T08:00:10.352Z,12752.00
2019-04-27T08:01:10.344Z,12004.00
2019-04-27T08:02:11.035Z,11704.00
2019-04-27T08:03:10.322Z,11840.00
2019-04-27T08:04:10.311Z,12032.00
2019-04-27T08:05:10.299Z,12216.00
2019-04-27T08:06:10.867Z,12372.00
2019-04-27T08:07:10.282Z,12468.00
2019-04-27T08:08:10.266Z,12472.00
2019-04-27T08:09:10.257Z,12796.00
2019-04-27T08:10:10.246Z,13372.00
2019-04-27T08:11:11.330Z,13872.00
2019-04-27T08:12:10.885Z,14220.00
2019-04-27T08:13:10.219Z,14444.00
2019-04-27T08:14:10.204Z,14548.00
2019-04-27T08:15:10.191Z,14728.00
2019-04-27T08:16:10.181Z,14908.00
2019-04-27T08:17:10.197Z,15256.00
2019-04-27T08:18:10.158Z,15768.00
2019-04-27T08:19:10.149Z,16384.00
2019-04-27T08:20:10.138Z,16896.00
2019-04-27T08:21:10.128Z,16672.00
2019-04-27T08:22:10.118Z,16896.00
2019-04-27T08:23:10.106Z,16100.00
2019-04-27T08:24:11.213Z,15580.00
2019-04-27T08:25:10.085Z,15352.00
2019-04-27T08:26:10.074Z,15324.00
2019-04-27T08:27:10.065Z,15428.00
2019-04-27T08:28:10.450Z,15872.00
2019-04-27T08:29:10.043Z,16832.00
2019-04-27T08:30:10.034Z,18176.00
2019-04-27T08:31:10.021Z,23552.00
2019-04-27T08:32:10.013Z,25312.00
2019-04-27T08:33:09.997Z,28256.00
2019-04-27T08:34:09.991Z,28416.00
2019-04-27T08:35:09.978Z,27456.00
2019-04-27T08:36:09.967Z,31744.00
2019-04-27T08:37:09.954Z,30784.00
2019-04-27T08:38:09.949Z,31488.00
2019-04-27T08:39:09.932Z,29504.00
2019-04-27T08:40:09.924Z,27552.00
2019-04-27T08:41:09.913Z,28768.00
2019-04-27T08:42:09.901Z,32256.00
2019-04-27T08:43:09.891Z,39680.00
2019-04-27T08:44:09.880Z,51712.00
2019-04-27T08:45:09.871Z,43904.00
2019-04-27T08:46:09.859Z,37792.00
2019-04-27T08:47:09.848Z,27136.00
2019-04-27T08:48:09.837Z,26016.00
2019-04-27T08:49:10.229Z,25696.00
2019-04-27T08:50:09.816Z,24576.00
2019-04-27T08:51:09.808Z,26112.00
2019-04-27T08:52:09.793Z,26816.00
2019-04-27T08:53:09.981Z,26144.00
2019-04-27T08:54:09.772Z,27296.00
2019-04-27T08:55:09.762Z,31744.00
2019-04-27T08:56:09.758Z,30688.00
2019-04-27T08:57:09.872Z,44000.00
2019-04-27T08:58:10.207Z,52320.00
2019-04-27T08:59:09.723Z,56032.00
2019-04-27T09:00:09.712Z,66816.00
2019-04-27T09:01:10.419Z,31136.00
2019-04-27T09:02:09.726Z,28256.00
2019-04-27T09:03:09.726Z,32320.00
2019-04-27T09:04:11.316Z,38048.00
2019-04-27T09:05:09.753Z,33696.00
2019-04-27T09:06:09.651Z,37728.00
2019-04-27T09:07:09.683Z,33408.00
2019-04-27T09:08:09.622Z,34688.00
2019-04-27T09:09:09.623Z,37152.00
2019-04-27T09:10:09.603Z,40448.00
2019-04-27T09:11:09.589Z,27904.00
2019-04-27T09:12:09.598Z,30464.00
2019-04-27T09:13:09.571Z,45856.00
2019-04-27T09:14:09.557Z,51392.00
2019-04-27T09:15:10.007Z,42144.00
2019-04-27T09:16:11.100Z,39424.00
2019-04-27T09:17:09.718Z,41824.00
2019-04-27T09:18:09.516Z,40640.00
2019-04-27T09:19:09.504Z,36800.00
2019-04-27T09:20:09.608Z,23328.00
2019-04-27T09:21:10.586Z,15656.00
2019-04-27T09:22:16.003Z,13220.00
2019-04-27T09:23:10.460Z,14328.00
2019-04-27T09:24:09.512Z,17824.00
2019-04-27T09:25:09.487Z,30656.00
2019-04-27T09:26:11.114Z,33152.00
2019-04-27T09:27:09.719Z,27680.00
2019-04-27T09:28:09.409Z,20608.00
2019-04-27T09:29:09.396Z,19840.00
2019-04-27T09:30:10.324Z,19168.00
2019-04-27T09:31:09.377Z,18496.00
2019-04-27T09:32:09.366Z,18080.00
2019-04-27T09:33:09.354Z,18048.00
2019-04-27T09:34:10.541Z,18496.00
2019-04-27T09:35:09.333Z,19168.00
2019-04-27T09:36:09.323Z,19680.00
2019-04-27T09:37:09.317Z,20384.00
2019-04-27T09:38:09.301Z,20000.00
2019-04-27T09:39:09.291Z,19968.00
2019-04-27T09:40:09.280Z,19968.00
2019-04-27T09:41:09.270Z,20128.00
2019-04-27T09:42:09.277Z,20736.00
2019-04-27T09:43:09.255Z,21376.00
2019-04-27T09:44:09.257Z,21888.00
2019-04-27T09:45:09.227Z,22048.00
2019-04-27T09:46:09.217Z,22240.00
2019-04-27T09:47:09.207Z,22752.00
2019-04-27T09:48:09.197Z,23136.00
2019-04-27T09:49:12.013Z,23360.00
2019-04-27T09:50:09.172Z,23552.00
2019-04-27T09:51:09.162Z,23744.00
2019-04-27T09:52:09.152Z,23904.00
2019-04-27T09:53:09.144Z,23648.00
2019-04-27T09:54:09.131Z,23872.00
2019-04-27T09:55:09.121Z,24288.00
2019-04-27T09:56:09.113Z,26400.00
2019-04-27T09:57:09.099Z,27488.00
2019-04-27T09:58:09.087Z,29504.00
2019-04-27T09:59:09.077Z,31936.00
2019-04-27T10:00:09.069Z,38080.00
2019-04-27T10:01:09.055Z,40704.00
2019-04-27T10:02:09.046Z,42272.00
2019-04-27T10:03:09.034Z,46688.00
2019-04-27T10:04:09.023Z,38240.00
2019-04-27T10:05:09.014Z,39680.00
2019-04-27T10:06:09.002Z,34976.00
2019-04-27T10:07:09.010Z,38432.00
2019-04-27T10:08:08.982Z,40256.00
2019-04-27T10:09:08.969Z,35808.00
2019-04-27T10:10:08.962Z,35136.00
2019-04-27T10:11:08.951Z,34464.00
2019-04-27T10:12:08.937Z,34656.00
2019-04-27T10:13:08.934Z,33280.00
2019-04-27T10:14:08.924Z,35808.00
2019-04-27T10:15:08.906Z,39776.00
2019-04-27T10:16:08.897Z,38784.00
2019-04-27T10:17:08.888Z,79936.00
2019-04-27T10:18:08.888Z,38304.00
2019-04-27T10:19:08.864Z,37760.00
2019-04-27T10:20:08.854Z,38848.00
2019-04-27T10:21:08.842Z,36128.00
2019-04-27T10:22:08.881Z,32256.00
2019-04-27T10:23:08.822Z,27936.00
2019-04-27T10:24:08.810Z,27360.00
2019-04-27T10:25:08.810Z,28800.00
2019-04-27T10:26:08.790Z,32640.00
2019-04-27T10:27:08.786Z,30432.00
2019-04-27T10:28:08.770Z,30976.00
2019-04-27T10:29:08.758Z,31520.00
2019-04-27T10:30:08.747Z,28512.00
2019-04-27T10:31:08.737Z,25312.00
2019-04-27T10:32:08.729Z,24640.00
2019-04-27T10:33:08.718Z,24864.00
2019-04-27T10:34:08.706Z,26560.00
2019-04-27T10:35:08.697Z,27808.00
2019-04-27T10:36:08.682Z,28736.00
2019-04-27T10:37:08.674Z,34688.00
2019-04-27T10:38:08.661Z,34016.00
2019-04-27T10:39:08.652Z,36000.00
2019-04-27T10:40:08.640Z,43232.00
2019-04-27T10:41:08.631Z,45312.00
2019-04-27T10:42:08.623Z,38944.00
2019-04-27T10:43:08.619Z,36640.00
2019-04-27T10:44:08.600Z,51008.00
2019-04-27T10:45:08.588Z,30624.00
2019-04-27T10:46:08.577Z,27712.00
2019-04-27T10:47:08.568Z,28480.00
2019-04-27T10:48:08.558Z,28960.00
2019-04-27T10:49:08.547Z,34304.00
2019-04-27T10:50:08.536Z,50208.00
2019-04-27T10:51:08.527Z,39392.00
2019-04-27T10:52:08.514Z,39840.00
2019-04-27T10:53:08.507Z,43136.00
2019-04-27T10:54:08.491Z,53376.00
2019-04-27T10:55:08.480Z,44672.00
2019-04-27T10:56:08.475Z,55200.00
2019-04-27T10:57:08.461Z,62208.00
2019-04-27T10:58:08.451Z,42656.00
2019-04-27T10:59:09.750Z,64576.00
2019-04-27T11:00:08.430Z,52928.00
2019-04-27T11:01:08.418Z,68288.00
2019-04-27T11:02:08.409Z,58976.00
2019-04-27T11:03:08.397Z,60736.00
2019-04-27T11:04:08.387Z,54400.00
2019-04-27T11:05:08.379Z,56128.00
2019-04-27T11:06:08.421Z,54304.00
2019-04-27T11:07:08.370Z,59392.00
2019-04-27T11:08:08.346Z,41920.00
2019-04-27T11:09:08.335Z,28640.00
2019-04-27T11:10:08.325Z,27904.00
2019-04-27T11:11:08.314Z,25952.00
2019-04-27T11:12:08.304Z,21952.00
2019-04-27T11:13:08.294Z,21568.00
2019-04-27T11:14:08.295Z,22400.00
2019-04-27T11:15:08.271Z,26752.00
2019-04-27T11:16:08.268Z,28512.00
2019-04-27T11:17:08.249Z,29376.00
2019-04-27T11:18:08.330Z,33280.00
2019-04-27T11:19:08.231Z,36480.00
2019-04-27T11:20:08.227Z,85952.00
2019-04-27T11:21:08.213Z,76320.00
2019-04-27T11:22:08.219Z,43392.00
2019-04-27T11:23:12.122Z,57632.00
2019-04-27T11:24:08.184Z,60128.00
2019-04-27T11:25:08.169Z,50784.00
2019-04-27T11:26:08.161Z,37344.00
2019-04-27T11:27:08.145Z,40768.00
2019-04-27T11:28:08.135Z,36672.00
2019-04-27T11:29:08.123Z,41056.00
2019-04-27T11:30:08.112Z,35296.00
2019-04-27T11:31:08.103Z,34720.00
2019-04-27T11:32:08.093Z,35392.00
2019-04-27T11:33:08.082Z,32864.00
2019-04-27T11:34:08.071Z,32256.00
2019-04-27T11:35:08.063Z,33792.00
2019-04-27T11:36:08.052Z,34816.00
2019-04-27T11:37:08.039Z,41856.00
2019-04-27T11:38:08.029Z,45280.00
2019-04-27T11:39:08.020Z,48704.00
2019-04-27T11:40:08.008Z,47168.00
2019-04-27T11:41:08.001Z,51712.00
2019-04-27T11:42:07.985Z,44512.00
2019-04-27T11:43:07.977Z,93984.00
2019-04-27T11:44:07.965Z,48448.00
2019-04-27T11:45:07.954Z,54208.00
2019-04-27T11:46:07.947Z,103776.00
2019-04-27T11:47:07.972Z,52448.00
2019-04-27T11:48:08.773Z,60832.00
2019-04-27T11:49:07.913Z,45664.00
2019-04-27T11:50:08.319Z,48608.00
2019-04-27T11:51:10.903Z,62336.00
2019-04-27T11:52:07.913Z,44160.00
2019-04-27T11:53:19.763Z,48960.00
2019-04-27T11:54:08.903Z,65504.00
2019-04-27T11:55:07.859Z,76960.00
2019-04-27T11:56:07.890Z,41760.00
2019-04-27T11:57:07.861Z,43616.00
2019-04-27T11:58:07.863Z,78336.00
2019-04-27T11:59:07.871Z,59776.00
2019-04-27T12:00:07.836Z,57056.00
2019-04-27T12:01:08.518Z,70432.00
2019-04-27T12:02:07.815Z,89408.00
2019-04-27T12:03:07.818Z,122048.00
2019-04-27T12:04:07.805Z,92256.00
2019-04-27T12:05:08.050Z,90560.00
2019-04-27T12:06:07.754Z,89664.00
2019-04-27T12:07:07.776Z,103808.00
2019-04-27T12:08:07.756Z,89952.00
2019-04-27T12:09:07.724Z,105888.00
2019-04-27T12:10:07.760Z,108480.00
2019-04-27T12:11:07.737Z,106880.00
2019-04-27T12:12:13.509Z,105152.00
2019-04-27T12:13:08.715Z,88896.00
2019-04-27T12:14:07.707Z,97984.00
2019-04-27T12:15:07.648Z,103264.00
2019-04-27T12:16:07.697Z,105248.00
2019-04-27T12:17:07.628Z,72448.00